Time;durP1;ratioP1;P1;durP2;ratioP2;P2;SDS_P1;SDS_P2;PMS_P1;PMS_P2;Temp;Humidity;BMP_temperature;BMP_pressure;BME280_temperature;BME280_humidity;BME280_pressure;Samples;Min_cycle;Max_cycle;Signal;HPM_P1;HPM_P2
2024/01/12 00:00:46;;;;;;;;;;;;;;;8.85;45.90;102127.72;4930975;28;99061;-68
2024/01/12 00:03:12;;;;;;;;;;;;;;;8.86;45.49;102132.03;4941533;28;98197;-68
2024/01/12 00:05:38;;;;;;;;;;;;;;;8.87;44.87;102133.69;4931232;28;109987;-64
2024/01/12 00:08:04;;;;;;;;;;;;;;;8.87;45.52;102119.41;4931431;28;113281;-68
2024/01/12 00:10:31;;;;;;;;;;;;;;;8.88;45.75;102131.81;4941724;28;118322;-64
2024/01/12 00:12:57;;;;;;;;;;;;;;;8.89;45.68;102139.69;4927575;28;102079;-68
2024/01/12 00:15:23;;;;;;;;;;;;;;;8.89;45.08;102138.88;4921869;28;100020;-68
2024/01/12 00:17:49;;;;;;;;;;;;;;;8.90;46.06;102146.72;4947718;28;107960;-64
2024/01/12 00:20:15;;;;;;;;;;;;;;;8.91;45.52;102142.16;4939811;28;98972;-64
2024/01/12 00:22:41;;;;;;;;;;;;;;;8.90;46.13;102146.72;4946411;28;98205;-68
2024/01/12 00:25:07;;;;;;;;;;;;;;;8.92;45.39;102143.78;4927863;28;98095;-68
2024/01/12 00:27:33;;;;;;;;;;;;;;;8.91;45.64;102142.97;4940015;28;111532;-68
2024/01/12 00:29:59;;;;;;;;;;;;;;;8.93;45.64;102137.41;4921780;28;124110;-68
2024/01/12 00:32:25;;;;;;;;;;;;;;;8.95;45.47;102133.44;4932675;28;97973;-64
2024/01/12 00:34:51;;;;;;;;;;;;;;;8.94;45.85;102125.59;4926385;28;114415;-68
2024/01/12 00:37:17;;;;;;;;;;;;;;;8.94;45.84;102129.09;4938947;28;128597;-64
2024/01/12 00:39:43;;;;;;;;;;;;;;;8.97;45.54;102125.16;4930087;28;98182;-68
2024/01/12 00:42:09;;;;;;;;;;;;;;;8.95;45.30;102122.66;4939280;28;98158;-68
2024/01/12 00:44:35;;;;;;;;;;;;;;;8.95;45.77;102125.38;4938099;28;98856;-68
2024/01/12 00:47:01;;;;;;;;;;;;;;;8.93;45.54;102124.78;4920622;28;127717;-64
2024/01/12 00:49:27;;;;;;;;;;;;;;;8.92;45.79;102111.53;4925684;28;100475;-64
2024/01/12 00:51:53;;;;;;;;;;;;;;;8.91;45.74;102107.19;4944164;28;118288;-68
2024/01/12 00:54:26;;;;;;;;;;;;;;;8.90;45.83;102105.56;4940919;28;98090;-64
2024/01/12 00:56:53;;;;;;;;;;;;;;;8.89;45.45;102098.53;4938677;28;99635;-64
2024/01/12 00:59:19;;;;;;;;;;;;;;;8.88;45.10;102094.16;4940743;28;103319;-68
2024/01/12 01:01:45;;;;;;;;;;;;;;;8.86;45.25;102094.41;4924212;28;98333;-64
2024/01/12 01:04:11;;;;;;;;;;;;;;;8.85;45.45;102096.25;4939174;28;98646;-68
2024/01/12 01:06:37;;;;;;;;;;;;;;;8.84;45.85;102099.16;4940041;28;102495;-68
2024/01/12 01:09:03;;;;;;;;;;;;;;;8.82;45.31;102104.75;4956393;28;102450;-68
2024/01/12 01:11:29;;;;;;;;;;;;;;;8.82;45.18;102099.38;4925914;28;98377;-64
2024/01/12 01:13:55;;;;;;;;;;;;;;;8.81;45.13;102105.00;4924789;28;99868;-68
2024/01/12 01:16:21;;;;;;;;;;;;;;;8.81;45.73;102102.31;4925356;28;98074;-64
2024/01/12 01:18:47;;;;;;;;;;;;;;;8.80;45.85;102106.00;4940165;28;98181;-67
2024/01/12 01:21:13;;;;;;;;;;;;;;;8.80;45.45;102108.69;4927327;28;98014;-64
2024/01/12 01:23:39;;;;;;;;;;;;;;;8.79;45.63;102113.25;4940083;28;98070;-64
2024/01/12 01:26:05;;;;;;;;;;;;;;;8.79;45.63;102115.13;4928363;28;99691;-68
2024/01/12 01:28:31;;;;;;;;;;;;;;;8.79;45.16;102115.13;4960969;28;99266;-68
2024/01/12 01:30:57;;;;;;;;;;;;;;;8.77;45.13;102111.84;4928153;28;99189;-64
2024/01/12 01:33:23;;;;;;;;;;;;;;;8.79;45.46;102113.25;4926090;28;98195;-67
2024/01/12 01:35:49;;;;;;;;;;;;;;;8.79;45.54;102109.75;4942050;28;128105;-68
2024/01/12 01:38:15;;;;;;;;;;;;;;;8.79;45.98;102115.13;4927525;28;104441;-64
2024/01/12 01:40:42;;;;;;;;;;;;;;;8.78;45.49;102114.28;4941918;28;117639;-68
2024/01/12 01:43:08;;;;;;;;;;;;;;;8.80;46.22;102111.38;4928019;28;98157;-64
2024/01/12 01:45:36;;;;;;;;;;;;;;;8.79;45.63;102101.69;4923257;28;98202;-63
2024/01/12 01:48:08;;;;;;;;;;;;;;;8.81;45.38;102110.38;4928111;28;99023;-68
2024/01/12 01:50:34;;;;;;;;;;;;;;;8.79;45.85;102107.06;4929452;28;98063;-68
2024/01/12 01:53:00;;;;;;;;;;;;;;;8.81;45.11;102118.44;4947519;28;97892;-68
2024/01/12 01:55:27;;;;;;;;;;;;;;;8.81;45.84;102107.69;4924159;28;98052;-67
2024/01/12 01:57:53;;;;;;;;;;;;;;;8.81;45.60;102113.06;4923048;28;106880;-68
2024/01/12 02:00:19;;;;;;;;;;;;;;;8.81;45.82;102099.59;4922748;28;101587;-64
2024/01/12 02:02:45;;;;;;;;;;;;;;;8.81;45.83;102105.81;4926956;28;98087;-63
2024/01/12 02:05:11;;;;;;;;;;;;;;;8.83;46.16;102102.88;4934055;28;127419;-68
2024/01/12 02:07:38;;;;;;;;;;;;;;;8.82;45.72;102110.13;4925612;28;98391;-64
2024/01/12 02:10:04;;;;;;;;;;;;;;;8.82;46.02;102115.50;4937970;28;98283;-68
2024/01/12 02:12:30;;;;;;;;;;;;;;;8.84;45.25;102115.28;4940706;28;98240;-64
2024/01/12 02:14:56;;;;;;;;;;;;;;;8.85;45.52;102116.97;4925752;28;98191;-64
2024/01/12 02:17:22;;;;;;;;;;;;;;;8.86;45.32;102113.22;4942953;28;98852;-64
2024/01/12 02:19:48;;;;;;;;;;;;;;;8.85;45.12;102103.50;4930500;28;98341;-64
2024/01/12 02:22:14;;;;;;;;;;;;;;;8.86;45.94;102099.78;4927569;28;101191;-68
2024/01/12 02:24:40;;;;;;;;;;;;;;;8.87;45.51;102100.59;4924468;28;101588;-68
2024/01/12 02:27:06;;;;;;;;;;;;;;;8.87;45.85;102084.47;4938157;28;114614;-64
2024/01/12 02:29:32;;;;;;;;;;;;;;;8.87;45.59;102092.53;4925396;28;118084;-64
2024/01/12 02:31:58;;;;;;;;;;;;;;;8.88;45.44;102091.47;4937352;28;127541;-67
2024/01/12 02:34:24;;;;;;;;;;;;;;;8.88;45.31;102097.69;4940742;28;98259;-68
2024/01/12 02:36:50;;;;;;;;;;;;;;;8.86;45.42;102089.03;4943272;28;116990;-68
2024/01/12 02:39:16;;;;;;;;;;;;;;;8.89;45.98;102087.78;4927101;28;103228;-68
2024/01/12 02:41:42;;;;;;;;;;;;;;;8.89;45.50;102088.59;4946286;28;98359;-64
2024/01/12 02:44:08;;;;;;;;;;;;;;;8.89;45.38;102085.91;4925489;28;98279;-68
2024/01/12 02:46:33;;;;;;;;;;;;;;;8.91;45.26;102091.06;4944700;28;105255;-68
2024/01/12 02:49:00;;;;;;;;;;;;;;;8.90;45.97;102084.03;4944158;28;98324;-64
2024/01/12 02:51:26;;;;;;;;;;;;;;;8.90;45.54;102078.66;4945352;28;99848;-64
2024/01/12 02:53:52;;;;;;;;;;;;;;;8.91;46.00;102081.13;4928247;28;115231;-68
2024/01/12 02:56:18;;;;;;;;;;;;;;;8.92;45.79;102081.94;4926951;28;98150;-68
2024/01/12 02:58:44;;;;;;;;;;;;;;;8.91;46.08;102081.13;4929538;28;98093;-68
2024/01/12 03:01:10;;;;;;;;;;;;;;;8.92;45.96;102082.78;4959243;28;128401;-64
2024/01/12 03:03:36;;;;;;;;;;;;;;;8.93;46.08;102075.53;4932615;28;127767;-64
2024/01/12 03:06:02;;;;;;;;;;;;;;;8.93;45.81;102079.03;4947171;28;98134;-64
2024/01/12 03:08:28;;;;;;;;;;;;;;;8.93;45.67;102079.03;4934052;28;98073;-64
2024/01/12 03:10:54;;;;;;;;;;;;;;;8.96;45.67;102075.94;4932868;28;126747;-68
2024/01/12 03:13:20;;;;;;;;;;;;;;;9.04;45.71;102080.22;4943001;28;127853;-64
2024/01/12 03:15:46;;;;;;;;;;;;;;;9.10;45.65;102082.03;4946741;28;117441;-64
2024/01/12 03:18:12;;;;;;;;;;;;;;;9.16;45.53;102074.97;4943246;28;116899;-64
2024/01/12 03:20:38;;;;;;;;;;;;;;;9.22;45.32;102079.44;4945822;28;98015;-68
2024/01/12 03:23:04;;;;;;;;;;;;;;;9.25;45.85;102079.84;4943851;28;98225;-68
2024/01/12 03:25:31;;;;;;;;;;;;;;;9.28;45.49;102074.03;4924500;28;98713;-64
2024/01/12 03:27:59;;;;;;;;;;;;;;;9.32;46.02;102077.94;4928466;28;99435;-68
2024/01/12 03:30:25;;;;;;;;;;;;;;;9.34;45.71;102077.69;4959613;28;98390;-64
2024/01/12 03:32:51;;;;;;;;;;;;;;;9.36;45.72;102072.94;4944818;28;97860;-64
2024/01/12 03:35:17;;;;;;;;;;;;;;;9.37;45.29;102069.19;4930477;28;123522;-68
2024/01/12 03:37:43;;;;;;;;;;;;;;;9.40;45.90;102067.94;4926730;28;98121;-68
2024/01/12 03:40:09;;;;;;;;;;;;;;;9.41;45.80;102074.94;4943167;28;127431;-68
2024/01/12 03:42:35;;;;;;;;;;;;;;;9.41;45.76;102073.06;4927058;28;99220;-68
2024/01/12 03:45:01;;;;;;;;;;;;;;;9.43;46.05;102087.16;4939058;28;128104;-64
2024/01/12 03:47:26;;;;;;;;;;;;;;;9.42;45.62;102085.50;4927057;28;98141;-68
2024/01/12 03:49:52;;;;;;;;;;;;;;;9.43;46.07;102076.38;4937693;28;128671;-64
2024/01/12 03:52:18;;;;;;;;;;;;;;;9.44;45.80;102079.91;4943162;28;97960;-64
2024/01/12 03:54:44;;;;;;;;;;;;;;;9.44;46.04;102080.72;4925766;28;128031;-68
2024/01/12 03:57:10;;;;;;;;;;;;;;;9.44;45.20;102080.72;4946381;28;118825;-68
2024/01/12 03:59:36;;;;;;;;;;;;;;;9.44;45.72;102078.03;4928437;28;98730;-68
2024/01/12 04:02:03;;;;;;;;;;;;;;;9.44;46.14;102085.28;4928081;28;121848;-64
2024/01/12 04:04:29;;;;;;;;;;;;;;;9.44;45.97;102091.50;4946199;28;97978;-68
2024/01/12 04:06:55;;;;;;;;;;;;;;;9.45;45.72;102086.91;4925669;28;117030;-65
2024/01/12 04:09:21;;;;;;;;;;;;;;;9.45;45.69;102086.91;4940289;28;127645;-68
2024/01/12 04:11:47;;;;;;;;;;;;;;;9.45;45.93;102086.91;4927186;28;99512;-64
2024/01/12 04:14:13;;;;;;;;;;;;;;;9.46;45.84;102085.88;4930502;28;100455;-68
2024/01/12 04:16:39;;;;;;;;;;;;;;;9.45;45.72;102076.16;4928660;28;98555;-69
2024/01/12 04:19:05;;;;;;;;;;;;;;;9.44;46.07;102079.91;4928634;28;100438;-68
2024/01/12 04:21:31;;;;;;;;;;;;;;;9.46;45.78;102072.41;4943191;28;98008;-68
2024/01/12 04:23:57;;;;;;;;;;;;;;;9.46;45.52;102067.03;4938374;28;98159;-68
2024/01/12 04:26:23;;;;;;;;;;;;;;;9.46;45.41;102064.34;4926905;28;98086;-69
2024/01/12 04:28:49;;;;;;;;;;;;;;;9.47;45.78;102068.66;4939976;28;127821;-65
2024/01/12 04:31:15;;;;;;;;;;;;;;;9.45;46.21;102055.44;4940366;28;98632;-64
2024/01/12 04:33:41;;;;;;;;;;;;;;;9.45;45.75;102046.53;4922648;28;127903;-69
2024/01/12 04:36:07;;;;;;;;;;;;;;;9.45;45.39;102049.25;4921836;28;98321;-64
2024/01/12 04:38:33;;;;;;;;;;;;;;;9.46;45.94;102038.25;4944795;28;99866;-64
2024/01/12 04:40:59;;;;;;;;;;;;;;;9.45;45.89;102044.69;4922029;28;101427;-69
2024/01/12 04:43:25;;;;;;;;;;;;;;;9.46;45.40;102056.25;4926135;28;97911;-69
2024/01/12 04:45:51;;;;;;;;;;;;;;;9.46;45.80;102061.66;4938328;28;117593;-64
2024/01/12 04:48:17;;;;;;;;;;;;;;;9.46;45.73;102067.03;4939952;28;98238;-69
2024/01/12 04:50:43;;;;;;;;;;;;;;;9.46;45.68;102064.34;4939651;28;102739;-65
2024/01/12 04:53:09;;;;;;;;;;;;;;;9.45;46.21;102047.38;4920971;27;120478;-69
2024/01/12 04:55:35;;;;;;;;;;;;;;;9.47;45.72;102052.53;4958125;27;97917;-65
2024/01/12 04:58:03;;;;;;;;;;;;;;;9.46;45.84;102048.19;4946806;27;97892;-69
2024/01/12 05:00:30;;;;;;;;;;;;;;;9.45;46.11;102052.75;4943253;28;99659;-69
2024/01/12 05:02:56;;;;;;;;;;;;;;;9.47;45.63;102057.91;4961301;27;98147;-64
2024/01/12 05:05:22;;;;;;;;;;;;;;;9.47;45.69;102060.59;4964496;28;98363;-64
2024/01/12 05:07:48;;;;;;;;;;;;;;;9.47;46.34;102060.59;4942978;27;122449;-64
2024/01/12 05:10:13;;;;;;;;;;;;;;;9.47;45.87;102065.97;4944964;27;98726;-64
2024/01/12 05:12:39;;;;;;;;;;;;;;;9.47;45.84;102066.81;4945505;27;128380;-69
2024/01/12 05:15:06;;;;;;;;;;;;;;;9.48;45.61;102064.97;4943070;27;98125;-69
2024/01/12 05:17:32;;;;;;;;;;;;;;;9.48;46.02;102073.03;4950775;28;98508;-69
2024/01/12 05:20:05;;;;;;;;;;;;;;;9.48;45.84;102068.47;4941922;27;119386;-65
2024/01/12 05:22:31;;;;;;;;;;;;;;;9.48;45.66;102067.66;4960771;28;98208;-64
2024/01/12 05:24:57;;;;;;;;;;;;;;;9.48;46.18;102059.56;4944922;27;98013;-65
2024/01/12 05:27:23;;;;;;;;;;;;;;;9.47;46.16;102053.38;4945197;28;98098;-69
2024/01/12 05:29:48;;;;;;;;;;;;;;;9.47;45.48;102053.38;4961841;27;128543;-65
2024/01/12 05:32:14;;;;;;;;;;;;;;;9.48;45.87;102055.00;4956660;27;127935;-65
2024/01/12 05:34:40;;;;;;;;;;;;;;;9.48;45.90;102051.50;4945888;27;101393;-70
2024/01/12 05:37:07;;;;;;;;;;;;;;;9.49;45.76;102055.81;4943176;27;105683;-70
2024/01/12 05:39:33;;;;;;;;;;;;;;;9.48;45.77;102055.00;4944064;28;98434;-70
2024/01/12 05:41:59;;;;;;;;;;;;;;;9.49;45.87;102053.13;4957801;27;127572;-66
2024/01/12 05:44:25;;;;;;;;;;;;;;;9.47;45.88;102050.69;4952402;28;98345;-70
2024/01/12 05:46:51;;;;;;;;;;;;;;;9.50;45.42;102057.47;4945875;27;97980;-70
2024/01/12 05:49:17;;;;;;;;;;;;;;;9.50;46.06;102057.47;4959410;27;126165;-65
2024/01/12 05:51:43;;;;;;;;;;;;;;;9.50;45.97;102063.66;4943771;27;130266;-70
2024/01/12 05:54:09;;;;;;;;;;;;;;;9.50;45.90;102071.75;4943934;27;117005;-70
2024/01/12 05:56:34;;;;;;;;;;;;;;;9.50;45.53;102063.66;4943803;28;113250;-65
2024/01/12 05:59:00;;;;;;;;;;;;;;;9.51;46.10;102073.41;4941534;28;121575;-70
2024/01/12 06:01:26;;;;;;;;;;;;;;;9.50;45.76;102079.81;4957955;27;107139;-69
2024/01/12 06:03:53;;;;;;;;;;;;;;;9.52;46.23;102085.00;4940907;27;99254;-70
2024/01/12 06:06:19;;;;;;;;;;;;;;;9.52;45.72;102085.00;4942271;27;99472;-65
2024/01/12 06:08:46;;;;;;;;;;;;;;;9.51;46.33;102078.81;4938014;27;108313;-65
2024/01/12 06:11:12;;;;;;;;;;;;;;;9.52;45.90;102074.25;4939423;27;97994;-66
2024/01/12 06:13:39;;;;;;;;;;;;;;;9.51;45.99;102068.03;4942163;27;99548;-65
2024/01/12 06:16:05;;;;;;;;;;;;;;;9.52;45.96;102071.53;4940826;28;99697;-65
2024/01/12 06:18:31;;;;;;;;;;;;;;;9.53;45.88;102073.19;4956257;27;98230;-65
2024/01/12 06:20:57;;;;;;;;;;;;;;;9.53;45.78;102075.88;4957523;27;97984;-69
2024/01/12 06:23:23;;;;;;;;;;;;;;;9.53;45.42;102076.69;4976818;27;117452;-70
2024/01/12 06:25:49;;;;;;;;;;;;;;;9.53;45.86;102079.38;4969044;27;98271;-65
2024/01/12 06:28:15;;;;;;;;;;;;;;;9.54;45.89;102082.91;4943441;27;98157;-65
2024/01/12 06:30:41;;;;;;;;;;;;;;;9.52;46.04;102083.13;4960110;27;98000;-70
2024/01/12 06:33:07;;;;;;;;;;;;;;;9.51;46.08;102084.19;4941564;27;115771;-65
2024/01/12 06:35:33;;;;;;;;;;;;;;;9.49;45.71;102091.63;4960190;27;98318;-70
2024/01/12 06:37:59;;;;;;;;;;;;;;;9.47;45.92;102099.13;4957882;27;115459;-70
2024/01/12 06:40:24;;;;;;;;;;;;;;;9.45;45.88;102097.69;4959983;27;107010;-65
2024/01/12 06:42:50;;;;;;;;;;;;;;;9.42;45.71;102087.34;4942908;27;117752;-65
2024/01/12 06:45:16;;;;;;;;;;;;;;;9.41;45.82;102091.09;4959918;28;98445;-70
2024/01/12 06:47:44;;;;;;;;;;;;;;;9.37;46.12;102090.72;4971758;27;128869;-70
2024/01/12 06:50:10;;;;;;;;;;;;;;;9.34;46.01;102083.91;4946063;28;98623;-70
2024/01/12 06:52:37;;;;;;;;;;;;;;;9.31;46.06;102078.97;4959071;27;99400;-65
2024/01/12 06:55:04;;;;;;;;;;;;;;;9.28;45.58;102076.72;4954549;27;99400;-70
2024/01/12 06:57:30;;;;;;;;;;;;;;;9.26;45.71;102073.41;4957585;27;109520;-70
2024/01/12 06:59:56;;;;;;;;;;;;;;;9.23;46.27;102073.84;4945371;27;98212;-65
2024/01/12 07:02:22;;;;;;;;;;;;;;;9.22;46.53;102074.88;4958566;27;98100;-65
2024/01/12 07:04:48;;;;;;;;;;;;;;;9.20;46.17;102070.78;4957954;27;98520;-69
2024/01/12 07:07:14;;;;;;;;;;;;;;;9.18;46.33;102078.25;4946567;27;99834;-70
2024/01/12 07:09:41;;;;;;;;;;;;;;;9.14;46.40;102068.97;4938926;27;105965;-70
2024/01/12 07:12:07;;;;;;;;;;;;;;;9.13;45.77;102067.31;4959606;27;97981;-70
2024/01/12 07:14:33;;;;;;;;;;;;;;;9.12;45.88;102079.94;4940417;27;113353;-65
2024/01/12 07:16:59;;;;;;;;;;;;;;;9.08;46.56;102087.63;4944295;27;128408;-69
2024/01/12 07:19:24;;;;;;;;;;;;;;;9.09;45.71;102088.47;4969886;27;126848;-65
2024/01/12 07:21:50;;;;;;;;;;;;;;;9.07;46.02;102091.34;4956646;27;117045;-70
2024/01/12 07:24:16;;;;;;;;;;;;;;;9.06;45.70;102089.72;4939254;27;98166;-70
2024/01/12 07:26:42;;;;;;;;;;;;;;;9.04;46.18;102089.13;4944929;27;127950;-65
2024/01/12 07:29:08;;;;;;;;;;;;;;;9.03;45.97;102086.63;4975830;27;121289;-65
2024/01/12 07:31:36;;;;;;;;;;;;;;;9.02;45.92;102091.19;4944250;27;98195;-70
2024/01/12 07:34:04;;;;;;;;;;;;;;;9.01;46.17;102089.53;4943176;27;99922;-69
2024/01/12 07:36:30;;;;;;;;;;;;;;;9.00;46.54;102090.59;4943106;27;98151;-65
2024/01/12 07:38:57;;;;;;;;;;;;;;;8.99;45.90;102086.22;4936792;27;123325;-70
2024/01/12 07:41:23;;;;;;;;;;;;;;;8.99;46.05;102086.22;4939113;27;100061;-65
2024/01/12 07:43:48;;;;;;;;;;;;;;;8.98;46.14;102078.38;4944580;27;129687;-65
2024/01/12 07:46:18;;;;;;;;;;;;;;;8.97;46.25;102084.81;4970620;27;125763;-70
2024/01/12 07:48:47;;;;;;;;;;;;;;;8.95;46.24;102087.72;4955203;27;102313;-69
2024/01/12 07:51:15;;;;;;;;;;;;;;;8.94;46.11;102096.81;4947051;27;98085;-69
2024/01/12 07:53:41;;;;;;;;;;;;;;;8.93;45.61;102091.69;4942705;27;98039;-65
2024/01/12 07:56:07;;;;;;;;;;;;;;;8.92;46.08;102088.16;4971756;27;106004;-65
2024/01/12 07:58:33;;;;;;;;;;;;;;;8.91;46.20;102083.81;4942985;28;101646;-65
2024/01/12 08:00:59;;;;;;;;;;;;;;;8.90;45.98;102087.53;4955240;27;98290;-65
2024/01/12 08:03:25;;;;;;;;;;;;;;;8.90;45.51;102094.78;4942740;27;109313;-65
2024/01/12 08:05:51;;;;;;;;;;;;;;;8.90;45.80;102092.09;4938731;27;127571;-65
2024/01/12 08:08:18;;;;;;;;;;;;;;;8.89;45.58;102095.84;4940564;28;98064;-65
2024/01/12 08:10:46;;;;;;;;;;;;;;;8.91;45.90;102094.56;4938629;27;98306;-70
2024/01/12 08:13:12;;;;;;;;;;;;;;;8.92;46.09;102082.78;4955271;28;98773;-65
2024/01/12 08:15:41;;;;;;;;;;;;;;;8.95;46.07;102081.50;4968697;27;98144;-65
2024/01/12 08:18:07;;;;;;;;;;;;;;;8.99;45.73;102083.53;4970434;27;99174;-70
2024/01/12 08:20:33;;;;;;;;;;;;;;;9.00;45.65;102071.75;4944260;28;118235;-65
2024/01/12 08:23:00;;;;;;;;;;;;;;;9.05;46.00;102077.31;4941079;27;98353;-69
2024/01/12 08:25:25;;;;;;;;;;;;;;;9.07;46.09;102071.69;4949197;28;115562;-70
2024/01/12 08:27:51;;;;;;;;;;;;;;;9.09;46.00;102078.50;4961194;27;127047;-65
2024/01/12 08:30:17;;;;;;;;;;;;;;;9.10;45.76;102084.72;4954397;28;117072;-65
2024/01/12 08:32:43;;;;;;;;;;;;;;;9.13;46.12;102076.22;4949785;28;108791;-65
2024/01/12 08:35:09;;;;;;;;;;;;;;;9.15;45.61;102081.38;4937529;28;129056;-70
2024/01/12 08:37:36;;;;;;;;;;;;;;;9.19;45.97;102083.38;4943737;28;99116;-69
2024/01/12 08:40:03;;;;;;;;;;;;;;;9.21;46.00;102073.25;4943060;27;100100;-70
2024/01/12 08:42:29;;;;;;;;;;;;;;;9.24;45.57;102080.06;4941888;28;106869;-70
2024/01/12 08:44:54;;;;;;;;;;;;;;;9.27;45.53;102074.22;4943163;28;110587;-70
2024/01/12 08:47:21;;;;;;;;;;;;;;;9.29;46.06;102075.66;4940563;28;118590;-70
2024/01/12 08:49:47;;;;;;;;;;;;;;;9.31;45.57;102084.34;4938392;27;111603;-65
2024/01/12 08:52:13;;;;;;;;;;;;;;;9.34;45.89;102078.50;4940461;28;98350;-70
2024/01/12 08:54:39;;;;;;;;;;;;;;;9.38;46.24;102080.78;4954968;28;111549;-70
2024/01/12 08:57:05;;;;;;;;;;;;;;;9.42;45.42;102079.28;4954695;28;98038;-65
2024/01/12 08:59:30;;;;;;;;;;;;;;;9.46;45.49;102072.41;4938571;28;116923;-65
2024/01/12 09:01:57;;;;;;;;;;;;;;;9.48;45.39;102075.72;4936113;27;131142;-70
2024/01/12 09:04:23;;;;;;;;;;;;;;;9.50;45.60;102071.75;4935467;28;99786;-65
2024/01/12 09:06:50;;;;;;;;;;;;;;;9.56;45.65;102061.97;4971104;27;114645;-70
2024/01/12 09:09:16;;;;;;;;;;;;;;;9.62;45.69;102063.75;4938546;27;99970;-65
2024/01/12 09:11:42;;;;;;;;;;;;;;;9.67;45.84;102055.88;4943019;27;99553;-65
2024/01/12 09:14:08;;;;;;;;;;;;;;;9.72;45.82;102052.50;4953610;27;130431;-65
2024/01/12 09:16:35;;;;;;;;;;;;;;;9.74;45.31;102061.97;4962112;28;98273;-65
2024/01/12 09:19:00;;;;;;;;;;;;;;;9.75;45.87;102058.25;4941493;27;98296;-70
2024/01/12 09:21:26;;;;;;;;;;;;;;;9.76;45.47;102054.53;4940986;28;127283;-66
2024/01/12 09:23:52;;;;;;;;;;;;;;;9.78;45.97;102065.06;4956115;27;128610;-69
2024/01/12 09:26:18;;;;;;;;;;;;;;;9.79;45.48;102064.03;4955820;27;118593;-65
2024/01/12 09:28:45;;;;;;;;;;;;;;;9.81;45.75;102060.03;4956654;27;97958;-65
2024/01/12 09:31:11;;;;;;;;;;;;;;;9.86;45.81;102053.97;4957539;27;98732;-70
2024/01/12 09:33:37;;;;;;;;;;;;;;;9.91;45.52;102059.53;4952524;28;127706;-65
2024/01/12 09:36:03;;;;;;;;;;;;;;;9.94;45.68;102064.50;4940187;27;128903;-70
2024/01/12 09:38:29;;;;;;;;;;;;;;;9.98;45.82;102073.78;4956982;27;98365;-65
2024/01/12 09:40:58;;;;;;;;;;;;;;;10.01;45.79;102075.16;4937958;27;98108;-65
2024/01/12 09:43:24;;;;;;;;;;;;;;;10.03;45.92;102056.94;4937825;27;99490;-65
2024/01/12 09:45:51;;;;;;;;;;;;;;;10.05;45.35;102062.91;4957405;27;98343;-69
2024/01/12 09:48:18;;;;;;;;;;;;;;;10.08;45.70;102070.53;4959203;27;99684;-69
2024/01/12 09:50:44;;;;;;;;;;;;;;;10.11;45.33;102075.47;4942818;27;123113;-69
2024/01/12 09:53:10;;;;;;;;;;;;;;;10.13;45.64;102070.66;4944386;27;99565;-65
2024/01/12 09:55:36;;;;;;;;;;;;;;;10.16;45.44;102074.78;4959512;28;103573;-65
2024/01/12 09:58:04;;;;;;;;;;;;;;;10.20;45.83;102076.81;4949595;27;98051;-65
2024/01/12 10:00:31;;;;;;;;;;;;;;;10.26;45.45;102067.88;4949010;28;101108;-69
2024/01/12 10:02:58;;;;;;;;;;;;;;;10.30;45.33;102060.16;4946650;27;98193;-69
2024/01/12 10:05:25;;;;;;;;;;;;;;;10.26;45.39;102045.50;4944815;27;98266;-65
2024/01/12 10:07:51;;;;;;;;;;;;;;;10.25;45.92;102039.25;4963224;27;98020;-69
2024/01/12 10:10:19;;;;;;;;;;;;;;;10.34;45.32;102037.09;4939380;27;98680;-65
2024/01/12 10:12:49;;;;;;;;;;;;;;;10.42;45.57;102031.38;4961542;27;99510;-70
2024/01/12 10:15:15;;;;;;;;;;;;;;;10.47;45.26;102039.59;4977870;27;99128;-69
2024/01/12 10:17:41;;;;;;;;;;;;;;;10.47;45.17;102044.16;4975585;27;98125;-65
2024/01/12 10:20:07;;;;;;;;;;;;;;;10.51;45.51;102043.47;4943142;28;131273;-69
2024/01/12 10:22:33;;;;;;;;;;;;;;;10.56;45.31;102043.59;4960433;27;98550;-70
2024/01/12 10:25:00;;;;;;;;;;;;;;;10.53;45.40;102032.44;4958734;27;98420;-64
2024/01/12 10:27:26;;;;;;;;;;;;;;;10.49;45.72;102031.25;4961038;27;98272;-65
2024/01/12 10:29:53;;;;;;;;;;;;;;;10.48;45.58;102029.63;4941186;27;98143;-69
2024/01/12 10:32:19;;;;;;;;;;;;;;;10.53;45.46;102027.91;4955203;27;98145;-69
2024/01/12 10:34:47;;;;;;;;;;;;;;;10.59;45.37;102020.75;4972202;27;98530;-69
2024/01/12 10:37:16;;;;;;;;;;;;;;;10.68;45.37;102022.06;4941372;28;99075;-65
2024/01/12 10:39:44;;;;;;;;;;;;;;;10.78;45.19;102010.72;4938259;27;99033;-64
2024/01/12 10:42:11;;;;;;;;;;;;;;;10.86;45.43;102005.00;4973895;28;102443;-69
2024/01/12 10:44:39;;;;;;;;;;;;;;;10.89;45.31;102011.81;4941651;27;99785;-65
2024/01/12 10:47:06;;;;;;;;;;;;;;;10.92;45.55;102008.63;4958702;27;97999;-69
2024/01/12 10:49:36;;;;;;;;;;;;;;;10.97;45.33;102008.78;4955583;27;99680;-64
2024/01/12 10:52:11;;;;;;;;;;;;;;;11.01;45.31;102005.38;4961201;27;98426;-69
2024/01/12 10:55:10;;;;;;;;;;;;;;;11.03;45.28;101991.63;4946741;27;99662;-69
2024/01/12 10:57:37;;;;;;;;;;;;;;;10.97;45.47;101988.00;4955542;27;99185;-64
2024/01/12 11:00:08;;;;;;;;;;;;;;;10.94;45.57;101983.06;4945170;27;99438;-69
2024/01/12 11:02:34;;;;;;;;;;;;;;;10.88;45.72;101978.59;4959941;27;98292;-69
2024/01/12 11:05:00;;;;;;;;;;;;;;;10.81;45.73;101975.22;4953986;27;120411;-65
2024/01/12 11:07:26;;;;;;;;;;;;;;;10.75;45.76;101976.94;4961339;27;98609;-65
2024/01/12 11:09:52;;;;;;;;;;;;;;;10.75;45.80;101979.63;4956130;27;98436;-64
2024/01/12 11:12:34;;;;;;;;;;;;;;;10.74;45.60;101974.50;4949758;28;97951;-65
2024/01/12 11:15:00;;;;;;;;;;;;;;;10.70;45.89;101968.72;4972671;27;98343;-69
2024/01/12 11:17:30;;;;;;;;;;;;;;;10.66;45.63;101964.03;4960988;27;98177;-65
2024/01/12 11:20:07;;;;;;;;;;;;;;;10.63;45.71;101973.41;4956513;27;99723;-65
2024/01/12 11:22:33;;;;;;;;;;;;;;;10.60;45.59;101968.47;4961724;27;98464;-65
2024/01/12 11:24:59;;;;;;;;;;;;;;;10.62;45.81;101965.56;4943532;27;99014;-65
2024/01/12 11:27:32;;;;;;;;;;;;;;;10.63;45.90;101962.63;4941322;28;117239;-70
2024/01/12 11:29:59;;;;;;;;;;;;;;;10.65;45.78;101973.16;4960067;27;99443;-69
2024/01/12 11:32:26;;;;;;;;;;;;;;;10.63;45.56;101961.78;4951177;27;98128;-64
2024/01/12 11:34:52;;;;;;;;;;;;;;;10.59;46.01;101953.34;4941671;27;98448;-69
2024/01/12 11:37:18;;;;;;;;;;;;;;;10.53;45.88;101955.09;4940423;28;99903;-69
2024/01/12 11:39:44;;;;;;;;;;;;;;;10.48;45.74;101957.66;4953681;27;98219;-65
2024/01/12 11:42:10;;;;;;;;;;;;;;;10.41;46.19;101958.81;4942569;28;100020;-69
2024/01/12 11:44:36;;;;;;;;;;;;;;;10.32;46.07;101953.72;4960996;28;98260;-65
2024/01/12 11:47:07;;;;;;;;;;;;;;;10.27;45.99;101947.41;4941565;27;98412;-69
2024/01/12 11:49:34;;;;;;;;;;;;;;;10.21;45.85;101940.19;4946648;28;98484;-64
2024/01/12 11:52:07;;;;;;;;;;;;;;;10.15;46.01;101938.44;4945951;27;98351;-64
2024/01/12 11:54:33;;;;;;;;;;;;;;;10.11;46.08;101929.16;4972163;27;99634;-64
2024/01/12 11:57:01;;;;;;;;;;;;;;;10.07;46.31;101921.53;4943004;27;98369;-64
2024/01/12 11:59:27;;;;;;;;;;;;;;;10.05;46.15;101923.63;4941686;28;98385;-69
2024/01/12 12:01:53;;;;;;;;;;;;;;;10.02;45.69;101918.72;4956628;27;98593;-64
2024/01/12 12:04:20;;;;;;;;;;;;;;;10.01;46.10;101918.91;4949330;28;100190;-64
2024/01/12 12:06:47;;;;;;;;;;;;;;;9.99;45.71;101913.75;4962899;27;98073;-69
2024/01/12 12:09:13;;;;;;;;;;;;;;;9.98;46.21;101914.81;4942371;28;98218;-68
2024/01/12 12:11:40;;;;;;;;;;;;;;;9.93;45.73;101919.22;4940467;28;98036;-69
2024/01/12 12:14:06;;;;;;;;;;;;;;;9.89;46.09;101908.09;4944693;28;99459;-65
2024/01/12 12:16:34;;;;;;;;;;;;;;;9.88;45.66;101914.53;4947439;28;101049;-65
2024/01/12 12:19:04;;;;;;;;;;;;;;;9.86;46.33;101913.94;4957910;27;98182;-69
2024/01/12 12:21:30;;;;;;;;;;;;;;;9.82;45.76;101910.91;4972513;27;98352;-64
2024/01/12 12:23:56;;;;;;;;;;;;;;;9.78;46.34;101901.59;4940480;27;98109;-69
2024/01/12 12:26:22;;;;;;;;;;;;;;;9.75;45.99;101895.88;4940267;28;99142;-70
2024/01/12 12:28:48;;;;;;;;;;;;;;;9.73;46.39;101903.34;4959094;27;98415;-65
2024/01/12 12:31:15;;;;;;;;;;;;;;;9.71;46.38;101902.75;4951232;27;98452;-65
2024/01/12 12:33:44;;;;;;;;;;;;;;;9.68;45.78;101897.81;4940873;28;98411;-65
2024/01/12 12:36:10;;;;;;;;;;;;;;;9.66;46.31;101897.22;4956342;27;98402;-70